M/V Saviour — WDD5064 — position and weather

sailwx.info

Track history (hours):
 
Tides and Currents Weather Stations Pressure Air Temp Water Temp Dewpoint Dewpoint Depression Visibility Wind Speed Wind Dir Waves Ship Positions

M/V Saviour

Owner: Marquette Transportation Company Gulf-Inland, LLC, Jefferson, LA. More information available from US FCC via Universal Licensing System and Coast Guard Vessel Documentation Center.

Last reported at 2018-Feb-23 03:40 UTC. Time now 2018-Feb-25 10:15 UTC.
Position N 29°51' W 091°55'.

Length 22 m; draft 3 m.

Type: . MMSI: 367151460.

Date/timePositionNaut miles runAvg speedWind from/ knotsBaromVisibWave heightAir tempDewpointWater temp
2018-Feb-23 03:40N 29°51' W 091°55'1 4.4
2018-Feb-23 03:28N 29°51' W 091°56'3 4.3
2018-Feb-23 02:52N 29°50' W 091°59'2 4.2
2018-Feb-23 02:30N 29°50' W 092°00'2 4.4
2018-Feb-23 02:00N 29°49' W 092°03'2 4.4
2018-Feb-23 01:30N 29°48' W 092°05'2 4.5
2018-Feb-23 01:00N 29°47' W 092°08'2 4.2
2018-Feb-23 00:30N 29°47' W 092°10'2 3.9
2018-Feb-23 00:00N 29°47' W 092°12'1 2.2
2018-Feb-22 23:28N 29°48' W 092°13'0 0.2
2018-Feb-22 23:00N 29°48' W 092°13'0 0.5
2018-Feb-22 22:30N 29°48' W 092°14'1 1.3
2018-Feb-22 21:59N 29°48' W 092°14'2 3.1
2018-Feb-22 21:29N 29°49' W 092°16'2 4.1
2018-Feb-22 20:59N 29°50' W 092°18'3 4.2
2018-Feb-22 20:22N 29°51' W 092°21'54 3.4
2018-Feb-22 04:22N 30°04' W 093°21'2 2.5
2018-Feb-22 03:37N 30°04' W 093°24'5 4.8
2018-Feb-22 02:34N 30°04' W 093°29'2 5.2
2018-Feb-22 02:14N 30°04' W 093°31'1 5.1
2018-Feb-22 01:59N 30°04' W 093°33'2 5.2
2018-Feb-22 01:30N 30°04' W 093°36'3 5.5
2018-Feb-22 00:59N 30°04' W 093°39'3 5.6
2018-Feb-22 00:28N 30°03' W 093°42'2 5.1
2018-Feb-22 00:01N 30°02' W 093°44'2 3.1
2018-Feb-21 23:30N 30°01' W 093°46'1 2.6
2018-Feb-21 23:00N 29°60' W 093°47'1 2.7
2018-Feb-21 22:30N 29°59' W 093°48'2 3.7
2018-Feb-21 22:00N 29°59' W 093°50'2 3.5
2018-Feb-21 21:29N 29°57' W 093°52'2 4.3
2018-Feb-21 21:00N 29°55' W 093°53'2 4.5
2018-Feb-21 20:31N 29°54' W 093°54'2 3.8
2018-Feb-21 20:01N 29°52' W 093°56'2 4.4
2018-Feb-21 19:30N 29°50' W 093°57'2 3.7
2018-Feb-21 19:00N 29°49' W 093°59'0 0.9
2018-Feb-21 18:31N 29°49' W 093°59'0 0.0
2018-Feb-21 18:00N 29°49' W 093°59'0 0.0
2018-Feb-21 17:31N 29°49' W 093°59'0 0.0
2018-Feb-21 17:00N 29°49' W 093°59'0 0.0
2018-Feb-21 16:30N 29°49' W 093°59'1 2.9
2018-Feb-21 16:00N 29°48' W 094°00'1 2.9
2018-Feb-21 15:30N 29°47' W 094°02'1 2.5
2018-Feb-21 15:01N 29°46' W 094°03'1 2.6
2018-Feb-21 14:31N 29°45' W 094°04'1 2.7
2018-Feb-21 14:00N 29°44' W 094°05'1 2.8
2018-Feb-21 13:30N 29°44' W 094°06'1 1.0
2018-Feb-21 13:00N 29°43' W 094°07'0 0.0
2018-Feb-21 12:31N 29°43' W 094°07'0 0.1
2018-Feb-21 12:01N 29°43' W 094°07'0 0.1
2018-Feb-21 11:30N 29°43' W 094°07'0 0.0
2018-Feb-21 11:01N 29°43' W 094°07'0 0.0
2018-Feb-21 10:30N 29°43' W 094°07'0 0.0
2018-Feb-21 10:00N 29°43' W 094°07'0 0.0
2018-Feb-21 09:31N 29°43' W 094°07'0 0.1
2018-Feb-21 09:01N 29°43' W 094°07'0 0.0
2018-Feb-21 08:30N 29°43' W 094°07'0 0.0
2018-Feb-21 08:00N 29°43' W 094°07'0 0.0
2018-Feb-21 07:30N 29°43' W 094°07'0 0.0
2018-Feb-21 07:00N 29°43' W 094°07'0 0.0
2018-Feb-21 06:30N 29°43' W 094°07'0 0.0
2018-Feb-21 06:00N 29°43' W 094°07'0 0.0
2018-Feb-21 05:30N 29°43' W 094°07'0 0.0
2018-Feb-21 05:01N 29°43' W 094°07'0 0.0
2018-Feb-21 04:30N 29°43' W 094°07'0 0.0
2018-Feb-21 04:01N 29°43' W 094°07'0 0.1
2018-Feb-21 03:30N 29°43' W 094°07'1 1.7
2018-Feb-21 03:00N 29°43' W 094°07'2 4.0
2018-Feb-21 02:30N 29°42' W 094°09'2 3.7
2018-Feb-21 02:00N 29°41' W 094°11'2 3.9
2018-Feb-21 01:30N 29°40' W 094°13'2 4.1
2018-Feb-21 01:00N 29°39' W 094°15'2 4.1
2018-Feb-21 00:30N 29°38' W 094°17'2 4.0
2018-Feb-20 23:56N 29°37' W 094°20'2 4.1
2018-Feb-20 23:24N 29°36' W 094°22'2 3.6
2018-Feb-20 22:51N 29°36' W 094°24'1 3.1
2018-Feb-20 22:30N 29°35' W 094°25'2 3.3
2018-Feb-20 21:59N 29°34' W 094°26'2 3.6
2018-Feb-20 21:25N 29°33' W 094°28'5 0.7
2018-Feb-20 13:21N 29°30' W 094°34'0 0.0
2018-Feb-20 13:01N 29°30' W 094°34'0 0.0
2018-Feb-20 12:28N 29°30' W 094°34'0 0.0
2018-Feb-20 11:09N 29°30' W 094°34'0 0.1
2018-Feb-20 10:57N 29°30' W 094°34'0 0.0
2018-Feb-20 10:25N 29°30' W 094°33'0 0.0
2018-Feb-20 09:39N 29°30' W 094°33'0 0.0
2018-Feb-20 09:30N 29°30' W 094°33'1 0.5
2018-Feb-20 08:22N 29°30' W 094°34'2 3.5
2018-Feb-20 07:52N 29°29' W 094°36'2 4.5
2018-Feb-20 07:27N 29°28' W 094°38'2 4.6
2018-Feb-20 07:00N 29°28' W 094°40'1 1.1
2018-Feb-20 06:30N 29°27' W 094°41'8 1.6
2018-Feb-20 01:10N 29°26' W 094°50'2 4.8
2018-Feb-20 00:50N 29°27' W 094°51'2 5.0
2018-Feb-20 00:30N 29°29' W 094°51'3 5.0
2018-Feb-20 00:00N 29°31' W 094°53'3 5.3
2018-Feb-19 23:31N 29°33' W 094°55'3 5.6
2018-Feb-19 23:01N 29°35' W 094°56'3 5.4
2018-Feb-19 22:30N 29°38' W 094°58'3 5.9
2018-Feb-19 22:00N 29°41' W 094°59'3 5.0
2018-Feb-19 21:30N 29°42' W 095°01'2 4.8
2018-Feb-19 21:00N 29°44' W 095°03'3 1.1
2018-Feb-19 18:06N 29°47' W 095°05'0 0.0
2018-Feb-19 17:48N 29°47' W 095°05'1 2.0
2018-Feb-19 17:30N 29°46' W 095°05'1 0.9
2018-Feb-19 16:13N 29°47' W 095°04'1 1.9
2018-Feb-19 15:55N 29°47' W 095°05'0 0.0
2018-Feb-19 15:18N 29°47' W 095°05'0 0.0
2018-Feb-19 14:54N 29°47' W 095°05'0 0.0
2018-Feb-19 14:30N 29°47' W 095°05'1 1.2
2018-Feb-19 14:00N 29°47' W 095°04'1 1.0
2018-Feb-19 13:29N 29°47' W 095°05'0 0.4
2018-Feb-19 13:00N 29°47' W 095°04'0 0.3
2018-Feb-19 12:21N 29°47' W 095°04'1 1.9
2018-Feb-19 11:59N 29°47' W 095°05'0 0.1
2018-Feb-19 11:30N 29°47' W 095°05'0 0.0
2018-Feb-19 10:51N 29°47' W 095°05'0 0.0
2018-Feb-19 10:30N 29°47' W 095°05'0 0.0
2018-Feb-19 10:00N 29°47' W 095°05'0 0.0
2018-Feb-19 09:30N 29°47' W 095°05'0 0.0
2018-Feb-19 09:00N 29°47' W 095°05'0 0.0
2018-Feb-19 08:30N 29°47' W 095°05'0 0.0
2018-Feb-19 08:00N 29°47' W 095°05'0 0.0
2018-Feb-19 07:29N 29°47' W 095°05'0 0.0
2018-Feb-19 07:00N 29°47' W 095°05'0 0.0
2018-Feb-19 06:21N 29°47' W 095°05'0 0.0
2018-Feb-19 06:00N 29°47' W 095°05'0 0.0
2018-Feb-19 05:30N 29°47' W 095°05'0 0.0
2018-Feb-19 05:00N 29°47' W 095°05'0 0.0
2018-Feb-19 04:30N 29°47' W 095°05'0 0.0
2018-Feb-19 03:47N 29°47' W 095°05'0 0.0
2018-Feb-19 03:29N 29°47' W 095°05'0 0.0
2018-Feb-19 03:00N 29°47' W 095°05'0 0.0
2018-Feb-19 02:01N 29°47' W 095°05'0 0.0
2018-Feb-19 01:55N 29°47' W 095°05'0 0.0
2018-Feb-19 01:29N 29°47' W 095°05'0 0.1
2018-Feb-18 19:18N 29°47' W 095°04'1 2.6
2018-Feb-18 19:00N 29°46' W 095°05'1 0.3
2018-Feb-18 16:48N 29°46' W 095°05'0 1.2
2018-Feb-18 16:25N 29°46' W 095°05'1 2.2
2018-Feb-18 15:59N 29°46' W 095°06'0 0.0
2018-Feb-18 15:07N 29°46' W 095°06'0 0.1
2018-Feb-18 12:38N 29°46' W 095°06'1 3.6
2018-Feb-18 12:28N 29°46' W 095°05'2 2.6
2018-Feb-18 11:53N 29°47' W 095°04'0 0.3
2018-Feb-18 10:45N 29°47' W 095°04'0 0.9
2018-Feb-18 10:13N 29°47' W 095°04'1 4.0
2018-Feb-18 09:58N 29°46' W 095°05'2 3.6
2018-Feb-18 09:30N 29°45' W 095°04'2 4.7
2018-Feb-18 09:00N 29°43' W 095°01'2 4.2
2018-Feb-18 08:30N 29°42' W 094°60'2 4.7
2018-Feb-18 08:00N 29°40' W 094°58'3 5.5
2018-Feb-18 07:30N 29°37' W 094°57'3 5.8
2018-Feb-18 07:00N 29°35' W 094°56'3 5.8
2018-Feb-18 06:30N 29°32' W 094°54'11 2.3
2018-Feb-18 01:29N 29°25' W 094°44'0 0.0
2018-Feb-18 00:58N 29°25' W 094°44'0 0.0
2018-Feb-18 00:03N 29°25' W 094°44'0 0.0
2018-Feb-17 23:47N 29°25' W 094°44'0 0.0
2018-Feb-17 23:30N 29°25' W 094°44'0 0.4
2018-Feb-17 22:52N 29°25' W 094°44'0 0.1
2018-Feb-17 22:29N 29°25' W 094°44'1 1.4
2018-Feb-17 21:56N 29°25' W 094°43'0 0.0
2018-Feb-17 21:28N 29°25' W 094°43'10 2.0
2018-Feb-17 16:15N 29°30' W 094°33'0 0.0
2018-Feb-17 15:52N 29°30' W 094°33'0 0.0
2018-Feb-17 15:27N 29°30' W 094°33'0 0.0
2018-Feb-17 15:00N 29°30' W 094°33'0 0.0
2018-Feb-17 14:28N 29°30' W 094°33'0 0.0
2018-Feb-17 14:00N 29°30' W 094°33'0 0.0
2018-Feb-17 13:22N 29°30' W 094°33'0 0.0
2018-Feb-17 12:57N 29°30' W 094°33'0 0.0
2018-Feb-17 12:28N 29°30' W 094°33'0 0.0
2018-Feb-17 12:00N 29°30' W 094°33'0 0.0
2018-Feb-17 11:30N 29°30' W 094°33'0 0.0
2018-Feb-17 11:00N 29°30' W 094°33'0 0.0
2018-Feb-17 10:30N 29°30' W 094°33'0 0.0
2018-Feb-17 10:00N 29°30' W 094°33'0 0.0
2018-Feb-17 09:30N 29°30' W 094°33'0 0.0
2018-Feb-17 09:00N 29°30' W 094°33'0 0.0
2018-Feb-17 08:30N 29°30' W 094°33'0 0.0
2018-Feb-17 07:58N 29°30' W 094°33'0 0.0
2018-Feb-17 07:30N 29°30' W 094°33'0 0.0
2018-Feb-17 06:58N 29°30' W 094°33'0 0.0
2018-Feb-17 06:30N 29°30' W 094°33'0 0.0
2018-Feb-17 05:59N 29°30' W 094°33'0 0.0
2018-Feb-17 05:30N 29°30' W 094°33'0 0.0
2018-Feb-17 05:00N 29°30' W 094°33'0 0.0
2018-Feb-17 04:29N 29°30' W 094°33'0 0.0
2018-Feb-17 04:00N 29°30' W 094°33'0 0.0
2018-Feb-17 03:30N 29°30' W 094°33'0 0.0
2018-Feb-17 02:59N 29°30' W 094°33'0 0.0
2018-Feb-17 02:30N 29°30' W 094°33'0 0.0
2018-Feb-17 02:00N 29°30' W 094°33'0 0.0
2018-Feb-17 01:30N 29°30' W 094°33'0 0.0
2018-Feb-17 01:00N 29°30' W 094°33'0 0.0
2018-Feb-17 00:30N 29°30' W 094°33'0 0.0
2018-Feb-17 00:00N 29°30' W 094°33'0 0.0
2018-Feb-16 23:30N 29°30' W 094°33'2 3.1
2018-Feb-16 22:56N 29°31' W 094°31'2 4.3
2018-Feb-16 22:29N 29°32' W 094°29'0 0.7
2018-Feb-16 21:54N 29°32' W 094°29'2 0.9
2018-Feb-16 19:23N 29°34' W 094°27'1 3.6
2018-Feb-16 19:00N 29°34' W 094°26'0 0.6
2018-Feb-16 18:30N 29°34' W 094°25'1 2.8
2018-Feb-16 18:01N 29°35' W 094°25'2 3.7
2018-Feb-16 17:30N 29°36' W 094°23'2 4.0
2018-Feb-16 17:00N 29°37' W 094°21'2 3.8
2018-Feb-16 16:28N 29°38' W 094°19'2 3.7
2018-Feb-16 16:00N 29°39' W 094°17'2 3.4
2018-Feb-16 15:31N 29°39' W 094°15'2 4.1
2018-Feb-16 15:00N 29°40' W 094°13'1 1.7
2018-Feb-16 14:31N 29°41' W 094°12'0 0.0
2018-Feb-16 14:01N 29°41' W 094°12'0 0.0
2018-Feb-16 13:29N 29°41' W 094°12'0 0.0
2018-Feb-16 13:00N 29°41' W 094°12'0 0.0
2018-Feb-16 12:31N 29°41' W 094°12'0 0.0
2018-Feb-16 12:01N 29°41' W 094°12'0 0.0
2018-Feb-16 11:30N 29°41' W 094°12'0 0.0
2018-Feb-16 10:59N 29°41' W 094°12'0 0.0
2018-Feb-16 10:31N 29°41' W 094°12'0 0.0
2018-Feb-16 10:01N 29°41' W 094°12'0 0.0
2018-Feb-16 09:30N 29°41' W 094°12'0 0.0
2018-Feb-16 09:00N 29°41' W 094°12'0 0.0
2018-Feb-16 08:30N 29°41' W 094°12'0 0.0
2018-Feb-16 08:00N 29°41' W 094°12'0 0.0
2018-Feb-16 07:31N 29°41' W 094°12'0 0.0
2018-Feb-16 07:00N 29°41' W 094°12'0 0.0
2018-Feb-16 06:30N 29°41' W 094°12'0 0.0
2018-Feb-16 06:01N 29°41' W 094°12'0 0.0
2018-Feb-16 05:30N 29°41' W 094°12'0 0.0
2018-Feb-16 05:00N 29°41' W 094°12'0 0.0
2018-Feb-16 04:30N 29°41' W 094°12'0 0.0
2018-Feb-16 04:00N 29°41' W 094°12'0 0.0
2018-Feb-16 03:30N 29°41' W 094°12'0 0.0
2018-Feb-16 03:00N 29°41' W 094°12'0 0.0
2018-Feb-16 02:31N 29°41' W 094°12'0 0.0
2018-Feb-16 02:00N 29°41' W 094°12'0 0.0
2018-Feb-16 01:30N 29°41' W 094°12'0 0.0
2018-Feb-16 01:01N 29°41' W 094°12'0 0.0
2018-Feb-16 00:31N 29°41' W 094°12'0 0.0
2018-Feb-16 00:01N 29°41' W 094°12'2 3.4
2018-Feb-15 23:30N 29°41' W 094°10'2 4.5
2018-Feb-15 23:00N 29°42' W 094°08'3 5.3
2018-Feb-15 22:30N 29°44' W 094°06'3 5.3
2018-Feb-15 22:00N 29°46' W 094°03'3 5.2
2018-Feb-15 21:30N 29°47' W 094°01'3 5.1
2018-Feb-15 21:01N 29°49' W 093°59'2 4.8
2018-Feb-15 20:30N 29°51' W 093°57'3 6.2
2018-Feb-15 20:01N 29°53' W 093°55'3 6.1
2018-Feb-15 19:30N 29°56' W 093°53'3 5.7
2018-Feb-15 19:01N 29°58' W 093°51'3 5.5
2018-Feb-15 18:31N 29°59' W 093°48'1 2.8
2018-Feb-15 18:00N 29°60' W 093°47'0 0.0
2018-Feb-15 17:30N 29°60' W 093°47'0 0.0
2018-Feb-15 17:01N 29°60' W 093°47'0 0.0
2018-Feb-15 16:31N 29°60' W 093°47'0 0.0
2018-Feb-15 16:01N 29°60' W 093°47'0 0.0
2018-Feb-15 15:31N 29°60' W 093°47'0 0.0
2018-Feb-15 15:00N 29°60' W 093°47'0 0.0
2018-Feb-15 14:30N 29°60' W 093°47'0 0.0
2018-Feb-15 14:00N 29°60' W 093°47'0 0.0
2018-Feb-15 13:31N 29°60' W 093°47'0 0.1
2018-Feb-15 13:00N 29°60' W 093°47'0 0.0
2018-Feb-15 12:31N 29°60' W 093°47'0 0.0
2018-Feb-15 12:00N 29°60' W 093°47'0 0.0
2018-Feb-15 11:31N 29°60' W 093°47'0 0.0
2018-Feb-15 11:00N 29°60' W 093°47'0 0.0
2018-Feb-15 10:30N 29°60' W 093°47'0 0.0
2018-Feb-15 10:01N 29°60' W 093°47'0 0.0
2018-Feb-15 09:31N 29°60' W 093°47'0 0.0
2018-Feb-15 09:00N 29°60' W 093°47'0 0.0
2018-Feb-15 08:30N 29°60' W 093°47'0 0.0
2018-Feb-15 08:00N 29°60' W 093°47'0 0.0
2018-Feb-15 07:31N 29°60' W 093°47'0 0.0
2018-Feb-15 07:00N 29°60' W 093°47'0 0.0
2018-Feb-15 06:30N 29°60' W 093°47'0 0.0
2018-Feb-15 06:01N 29°60' W 093°47'0 0.0
2018-Feb-15 05:29N 29°60' W 093°47'0 0.0
2018-Feb-15 05:00N 29°60' W 093°47'0 0.0
2018-Feb-15 04:30N 29°60' W 093°47'0 0.0
2018-Feb-15 04:00N 29°60' W 093°47'0 0.0
2018-Feb-15 03:30N 29°60' W 093°47'0 0.0
2018-Feb-15 03:00N 29°60' W 093°47'0 0.0
2018-Feb-15 02:30N 29°60' W 093°47'0 0.0
2018-Feb-15 02:00N 29°60' W 093°47'0 0.0
2018-Feb-15 01:30N 29°60' W 093°47'0 0.0
2018-Feb-15 01:00N 29°60' W 093°47'0 0.0
2018-Feb-15 00:30N 29°60' W 093°47'0 0.0
2018-Feb-15 00:01N 29°60' W 093°47'0 0.0
2018-Feb-14 23:31N 29°60' W 093°47'0 0.0
2018-Feb-14 23:01N 29°60' W 093°47'1 1.8
2018-Feb-14 22:30N 30°00' W 093°46'3 5.1
2018-Feb-14 22:00N 30°02' W 093°44'2 4.9
2018-Feb-14 21:31N 30°04' W 093°42'3 5.2
2018-Feb-14 21:01N 30°04' W 093°39'2 4.7
2018-Feb-14 20:30N 30°04' W 093°36'2 4.1
2018-Feb-14 20:00N 30°04' W 093°34'2 4.0
2018-Feb-14 19:30N 30°04' W 093°31'2 3.9
2018-Feb-14 18:59N 30°04' W 093°29'1 2.2
2018-Feb-14 18:30N 30°04' W 093°28'0 0.0
2018-Feb-14 18:00N 30°04' W 093°28'0 0.0
2018-Feb-14 17:30N 30°04' W 093°28'0 0.0
2018-Feb-14 17:00N 30°04' W 093°28'0 0.0
2018-Feb-14 16:30N 30°04' W 093°28'0 0.0
2018-Feb-14 16:00N 30°04' W 093°28'0 0.0
2018-Feb-14 15:30N 30°04' W 093°28'0 0.0
2018-Feb-14 15:00N 30°04' W 093°28'0 0.0
2018-Feb-14 14:30N 30°04' W 093°28'0 0.1
2018-Feb-14 14:01N 30°04' W 093°28'0 0.0
2018-Feb-14 13:30N 30°04' W 093°28'0 0.0
2018-Feb-14 13:01N 30°04' W 093°28'0 0.0
2018-Feb-14 12:31N 30°04' W 093°28'0 0.0
2018-Feb-14 12:00N 30°04' W 093°28'0 0.0
2018-Feb-14 11:30N 30°04' W 093°28'0 0.0
2018-Feb-14 11:01N 30°04' W 093°28'0 0.0
2018-Feb-14 10:30N 30°04' W 093°28'0 0.0
2018-Feb-14 10:00N 30°04' W 093°28'0 0.4
2018-Feb-14 09:30N 30°04' W 093°27'2 4.4
2018-Feb-14 09:01N 30°04' W 093°25'2 4.7
2018-Feb-14 08:31N 30°04' W 093°22'1 2.8
2018-Feb-14 08:01N 30°04' W 093°21'2 3.2
2018-Feb-14 07:31N 30°05' W 093°20'2 3.1
2018-Feb-14 07:00N 30°05' W 093°18'1 1.6
2018-Feb-14 06:30N 30°05' W 093°17'1 1.8
2018-Feb-14 06:00N 30°04' W 093°16'1 1.2
2018-Feb-14 05:31N 30°04' W 093°16'1 2.8
2018-Feb-14 05:00N 30°02' W 093°16'2 4.2
2018-Feb-14 04:30N 30°01' W 093°14'2 4.2
2018-Feb-14 04:00N 29°59' W 093°13'2 4.4
2018-Feb-14 03:30N 29°58' W 093°11'2 4.2
2018-Feb-14 03:00N 29°56' W 093°09'2 4.6
2018-Feb-14 02:30N 29°56' W 093°06'2 4.8
2018-Feb-14 02:00N 29°56' W 093°04'  
Track history (hours):
 
Tides and Currents Weather Stations Pressure Air Temp Water Temp Dewpoint Dewpoint Depression Visibility Wind Speed Wind Dir Waves Ship Positions

M/V Saviour

Owner: Marquette Transportation Company Gulf-Inland, LLC, Jefferson, LA. More information available from US FCC via Universal Licensing System and Coast Guard Vessel Documentation Center.

Last reported at 2018-Feb-23 03:40 UTC. Time now 2018-Feb-25 10:15 UTC.
Position N 29°51' W 091°55'.

Length 22 m; draft 3 m.

Type: . MMSI: 367151460.

Date/timePositionNaut miles runAvg speedWind from/ knotsBaromVisibWave heightAir tempDewpointWater temp
2018-Feb-23 03:40N 29°51' W 091°55'1 4.4
2018-Feb-23 03:28N 29°51' W 091°56'3 4.3
2018-Feb-23 02:52N 29°50' W 091°59'2 4.2
2018-Feb-23 02:30N 29°50' W 092°00'2 4.4
2018-Feb-23 02:00N 29°49' W 092°03'2 4.4
2018-Feb-23 01:30N 29°48' W 092°05'2 4.5
2018-Feb-23 01:00N 29°47' W 092°08'2 4.2
2018-Feb-23 00:30N 29°47' W 092°10'2 3.9
2018-Feb-23 00:00N 29°47' W 092°12'1 2.2
2018-Feb-22 23:28N 29°48' W 092°13'0 0.2
2018-Feb-22 23:00N 29°48' W 092°13'0 0.5
2018-Feb-22 22:30N 29°48' W 092°14'1 1.3
2018-Feb-22 21:59N 29°48' W 092°14'2 3.1
2018-Feb-22 21:29N 29°49' W 092°16'2 4.1
2018-Feb-22 20:59N 29°50' W 092°18'3 4.2
2018-Feb-22 20:22N 29°51' W 092°21'54 3.4
2018-Feb-22 04:22N 30°04' W 093°21'2 2.5
2018-Feb-22 03:37N 30°04' W 093°24'5 4.8
2018-Feb-22 02:34N 30°04' W 093°29'2 5.2
2018-Feb-22 02:14N 30°04' W 093°31'1 5.1
2018-Feb-22 01:59N 30°04' W 093°33'2 5.2
2018-Feb-22 01:30N 30°04' W 093°36'3 5.5
2018-Feb-22 00:59N 30°04' W 093°39'3 5.6
2018-Feb-22 00:28N 30°03' W 093°42'2 5.1
2018-Feb-22 00:01N 30°02' W 093°44'2 3.1
2018-Feb-21 23:30N 30°01' W 093°46'1 2.6
2018-Feb-21 23:00N 29°60' W 093°47'1 2.7
2018-Feb-21 22:30N 29°59' W 093°48'2 3.7
2018-Feb-21 22:00N 29°59' W 093°50'2 3.5
2018-Feb-21 21:29N 29°57' W 093°52'2 4.3
2018-Feb-21 21:00N 29°55' W 093°53'2 4.5
2018-Feb-21 20:31N 29°54' W 093°54'2 3.8
2018-Feb-21 20:01N 29°52' W 093°56'2 4.4
2018-Feb-21 19:30N 29°50' W 093°57'2 3.7
2018-Feb-21 19:00N 29°49' W 093°59'0 0.9
2018-Feb-21 18:31N 29°49' W 093°59'0 0.0
2018-Feb-21 18:00N 29°49' W 093°59'0 0.0
2018-Feb-21 17:31N 29°49' W 093°59'0 0.0
2018-Feb-21 17:00N 29°49' W 093°59'0 0.0
2018-Feb-21 16:30N 29°49' W 093°59'1 2.9
2018-Feb-21 16:00N 29°48' W 094°00'1 2.9
2018-Feb-21 15:30N 29°47' W 094°02'1 2.5
2018-Feb-21 15:01N 29°46' W 094°03'1 2.6
2018-Feb-21 14:31N 29°45' W 094°04'1 2.7
2018-Feb-21 14:00N 29°44' W 094°05'1 2.8
2018-Feb-21 13:30N 29°44' W 094°06'1 1.0
2018-Feb-21 13:00N 29°43' W 094°07'0 0.0
2018-Feb-21 12:31N 29°43' W 094°07'0 0.1
2018-Feb-21 12:01N 29°43' W 094°07'0 0.1
2018-Feb-21 11:30N 29°43' W 094°07'0 0.0
2018-Feb-21 11:01N 29°43' W 094°07'0 0.0
2018-Feb-21 10:30N 29°43' W 094°07'0 0.0
2018-Feb-21 10:00N 29°43' W 094°07'0 0.0
2018-Feb-21 09:31N 29°43' W 094°07'0 0.1
2018-Feb-21 09:01N 29°43' W 094°07'0 0.0
2018-Feb-21 08:30N 29°43' W 094°07'0 0.0
2018-Feb-21 08:00N 29°43' W 094°07'0 0.0
2018-Feb-21 07:30N 29°43' W 094°07'0 0.0
2018-Feb-21 07:00N 29°43' W 094°07'0 0.0
2018-Feb-21 06:30N 29°43' W 094°07'0 0.0
2018-Feb-21 06:00N 29°43' W 094°07'0 0.0
2018-Feb-21 05:30N 29°43' W 094°07'0 0.0
2018-Feb-21 05:01N 29°43' W 094°07'0 0.0
2018-Feb-21 04:30N 29°43' W 094°07'0 0.0
2018-Feb-21 04:01N 29°43' W 094°07'0 0.1
2018-Feb-21 03:30N 29°43' W 094°07'1 1.7
2018-Feb-21 03:00N 29°43' W 094°07'2 4.0
2018-Feb-21 02:30N 29°42' W 094°09'2 3.7
2018-Feb-21 02:00N 29°41' W 094°11'2 3.9
2018-Feb-21 01:30N 29°40' W 094°13'2 4.1
2018-Feb-21 01:00N 29°39' W 094°15'2 4.1
2018-Feb-21 00:30N 29°38' W 094°17'2 4.0
2018-Feb-20 23:56N 29°37' W 094°20'2 4.1
2018-Feb-20 23:24N 29°36' W 094°22'2 3.6
2018-Feb-20 22:51N 29°36' W 094°24'1 3.1
2018-Feb-20 22:30N 29°35' W 094°25'2 3.3
2018-Feb-20 21:59N 29°34' W 094°26'2 3.6
2018-Feb-20 21:25N 29°33' W 094°28'5 0.7
2018-Feb-20 13:21N 29°30' W 094°34'0 0.0
2018-Feb-20 13:01N 29°30' W 094°34'0 0.0
2018-Feb-20 12:28N 29°30' W 094°34'0 0.0
2018-Feb-20 11:09N 29°30' W 094°34'0 0.1
2018-Feb-20 10:57N 29°30' W 094°34'0 0.0
2018-Feb-20 10:25N 29°30' W 094°33'0 0.0
2018-Feb-20 09:39N 29°30' W 094°33'0 0.0
2018-Feb-20 09:30N 29°30' W 094°33'1 0.5
2018-Feb-20 08:22N 29°30' W 094°34'2 3.5
2018-Feb-20 07:52N 29°29' W 094°36'2 4.5
2018-Feb-20 07:27N 29°28' W 094°38'2 4.6
2018-Feb-20 07:00N 29°28' W 094°40'1 1.1
2018-Feb-20 06:30N 29°27' W 094°41'8 1.6
2018-Feb-20 01:10N 29°26' W 094°50'2 4.8
2018-Feb-20 00:50N 29°27' W 094°51'2 5.0
2018-Feb-20 00:30N 29°29' W 094°51'3 5.0
2018-Feb-20 00:00N 29°31' W 094°53'3 5.3
2018-Feb-19 23:31N 29°33' W 094°55'3 5.6
2018-Feb-19 23:01N 29°35' W 094°56'3 5.4
2018-Feb-19 22:30N 29°38' W 094°58'3 5.9
2018-Feb-19 22:00N 29°41' W 094°59'3 5.0
2018-Feb-19 21:30N 29°42' W 095°01'2 4.8
2018-Feb-19 21:00N 29°44' W 095°03'3 1.1
2018-Feb-19 18:06N 29°47' W 095°05'0 0.0
2018-Feb-19 17:48N 29°47' W 095°05'1 2.0
2018-Feb-19 17:30N 29°46' W 095°05'1 0.9
2018-Feb-19 16:13N 29°47' W 095°04'1 1.9
2018-Feb-19 15:55N 29°47' W 095°05'0 0.0
2018-Feb-19 15:18N 29°47' W 095°05'0 0.0
2018-Feb-19 14:54N 29°47' W 095°05'0 0.0
2018-Feb-19 14:30N 29°47' W 095°05'1 1.2
2018-Feb-19 14:00N 29°47' W 095°04'1 1.0
2018-Feb-19 13:29N 29°47' W 095°05'0 0.4
2018-Feb-19 13:00N 29°47' W 095°04'0 0.3
2018-Feb-19 12:21N 29°47' W 095°04'1 1.9
2018-Feb-19 11:59N 29°47' W 095°05'0 0.1
2018-Feb-19 11:30N 29°47' W 095°05'0 0.0
2018-Feb-19 10:51N 29°47' W 095°05'0 0.0
2018-Feb-19 10:30N 29°47' W 095°05'0 0.0
2018-Feb-19 10:00N 29°47' W 095°05'0 0.0
2018-Feb-19 09:30N 29°47' W 095°05'0 0.0
2018-Feb-19 09:00N 29°47' W 095°05'0 0.0
2018-Feb-19 08:30N 29°47' W 095°05'0 0.0
2018-Feb-19 08:00N 29°47' W 095°05'0 0.0
2018-Feb-19 07:29N 29°47' W 095°05'0 0.0
2018-Feb-19 07:00N 29°47' W 095°05'0 0.0
2018-Feb-19 06:21N 29°47' W 095°05'0 0.0
2018-Feb-19 06:00N 29°47' W 095°05'0 0.0
2018-Feb-19 05:30N 29°47' W 095°05'0 0.0
2018-Feb-19 05:00N 29°47' W 095°05'0 0.0
2018-Feb-19 04:30N 29°47' W 095°05'0 0.0
2018-Feb-19 03:47N 29°47' W 095°05'0 0.0
2018-Feb-19 03:29N 29°47' W 095°05'0 0.0
2018-Feb-19 03:00N 29°47' W 095°05'0 0.0
2018-Feb-19 02:01N 29°47' W 095°05'0 0.0
2018-Feb-19 01:55N 29°47' W 095°05'0 0.0
2018-Feb-19 01:29N 29°47' W 095°05'0 0.1
2018-Feb-18 19:18N 29°47' W 095°04'1 2.6
2018-Feb-18 19:00N 29°46' W 095°05'1 0.3
2018-Feb-18 16:48N 29°46' W 095°05'0 1.2
2018-Feb-18 16:25N 29°46' W 095°05'1 2.2
2018-Feb-18 15:59N 29°46' W 095°06'0 0.0
2018-Feb-18 15:07N 29°46' W 095°06'0 0.1
2018-Feb-18 12:38N 29°46' W 095°06'1 3.6
2018-Feb-18 12:28N 29°46' W 095°05'2 2.6
2018-Feb-18 11:53N 29°47' W 095°04'0 0.3
2018-Feb-18 10:45N 29°47' W 095°04'0 0.9
2018-Feb-18 10:13N 29°47' W 095°04'1 4.0
2018-Feb-18 09:58N 29°46' W 095°05'2 3.6
2018-Feb-18 09:30N 29°45' W 095°04'2 4.7
2018-Feb-18 09:00N 29°43' W 095°01'2 4.2
2018-Feb-18 08:30N 29°42' W 094°60'2 4.7
2018-Feb-18 08:00N 29°40' W 094°58'3 5.5
2018-Feb-18 07:30N 29°37' W 094°57'3 5.8
2018-Feb-18 07:00N 29°35' W 094°56'3 5.8
2018-Feb-18 06:30N 29°32' W 094°54'11 2.3
2018-Feb-18 01:29N 29°25' W 094°44'0 0.0
2018-Feb-18 00:58N 29°25' W 094°44'0 0.0
2018-Feb-18 00:03N 29°25' W 094°44'0 0.0
2018-Feb-17 23:47N 29°25' W 094°44'0 0.0
2018-Feb-17 23:30N 29°25' W 094°44'0 0.4
2018-Feb-17 22:52N 29°25' W 094°44'0 0.1
2018-Feb-17 22:29N 29°25' W 094°44'1 1.4
2018-Feb-17 21:56N 29°25' W 094°43'0 0.0
2018-Feb-17 21:28N 29°25' W 094°43'10 2.0
2018-Feb-17 16:15N 29°30' W 094°33'0 0.0
2018-Feb-17 15:52N 29°30' W 094°33'0 0.0
2018-Feb-17 15:27N 29°30' W 094°33'0 0.0
2018-Feb-17 15:00N 29°30' W 094°33'0 0.0
2018-Feb-17 14:28N 29°30' W 094°33'0 0.0
2018-Feb-17 14:00N 29°30' W 094°33'0 0.0
2018-Feb-17 13:22N 29°30' W 094°33'0 0.0
2018-Feb-17 12:57N 29°30' W 094°33'0 0.0
2018-Feb-17 12:28N 29°30' W 094°33'0 0.0
2018-Feb-17 12:00N 29°30' W 094°33'0 0.0
2018-Feb-17 11:30N 29°30' W 094°33'0 0.0
2018-Feb-17 11:00N 29°30' W 094°33'0 0.0
2018-Feb-17 10:30N 29°30' W 094°33'0 0.0
2018-Feb-17 10:00N 29°30' W 094°33'0 0.0
2018-Feb-17 09:30N 29°30' W 094°33'0 0.0
2018-Feb-17 09:00N 29°30' W 094°33'0 0.0
2018-Feb-17 08:30N 29°30' W 094°33'0 0.0
2018-Feb-17 07:58N 29°30' W 094°33'0 0.0
2018-Feb-17 07:30N 29°30' W 094°33'0 0.0
2018-Feb-17 06:58N 29°30' W 094°33'0 0.0
2018-Feb-17 06:30N 29°30' W 094°33'0 0.0
2018-Feb-17 05:59N 29°30' W 094°33'0 0.0
2018-Feb-17 05:30N 29°30' W 094°33'0 0.0
2018-Feb-17 05:00N 29°30' W 094°33'0 0.0
2018-Feb-17 04:29N 29°30' W 094°33'0 0.0
2018-Feb-17 04:00N 29°30' W 094°33'0 0.0
2018-Feb-17 03:30N 29°30' W 094°33'0 0.0
2018-Feb-17 02:59N 29°30' W 094°33'0 0.0
2018-Feb-17 02:30N 29°30' W 094°33'0 0.0
2018-Feb-17 02:00N 29°30' W 094°33'0 0.0
2018-Feb-17 01:30N 29°30' W 094°33'0 0.0
2018-Feb-17 01:00N 29°30' W 094°33'0 0.0
2018-Feb-17 00:30N 29°30' W 094°33'0 0.0
2018-Feb-17 00:00N 29°30' W 094°33'0 0.0
2018-Feb-16 23:30N 29°30' W 094°33'2 3.1
2018-Feb-16 22:56N 29°31' W 094°31'2 4.3
2018-Feb-16 22:29N 29°32' W 094°29'0 0.7
2018-Feb-16 21:54N 29°32' W 094°29'2 0.9
2018-Feb-16 19:23N 29°34' W 094°27'1 3.6
2018-Feb-16 19:00N 29°34' W 094°26'0 0.6
2018-Feb-16 18:30N 29°34' W 094°25'1 2.8
2018-Feb-16 18:01N 29°35' W 094°25'2 3.7
2018-Feb-16 17:30N 29°36' W 094°23'2 4.0
2018-Feb-16 17:00N 29°37' W 094°21'2 3.8
2018-Feb-16 16:28N 29°38' W 094°19'2 3.7
2018-Feb-16 16:00N 29°39' W 094°17'2 3.4
2018-Feb-16 15:31N 29°39' W 094°15'2 4.1
2018-Feb-16 15:00N 29°40' W 094°13'1 1.7
2018-Feb-16 14:31N 29°41' W 094°12'0 0.0
2018-Feb-16 14:01N 29°41' W 094°12'0 0.0
2018-Feb-16 13:29N 29°41' W 094°12'0 0.0
2018-Feb-16 13:00N 29°41' W 094°12'0 0.0
2018-Feb-16 12:31N 29°41' W 094°12'0 0.0
2018-Feb-16 12:01N 29°41' W 094°12'0 0.0
2018-Feb-16 11:30N 29°41' W 094°12'0 0.0
2018-Feb-16 10:59N 29°41' W 094°12'0 0.0
2018-Feb-16 10:31N 29°41' W 094°12'0 0.0
2018-Feb-16 10:01N 29°41' W 094°12'0 0.0
2018-Feb-16 09:30N 29°41' W 094°12'0 0.0
2018-Feb-16 09:00N 29°41' W 094°12'0 0.0
2018-Feb-16 08:30N 29°41' W 094°12'0 0.0
2018-Feb-16 08:00N 29°41' W 094°12'0 0.0
2018-Feb-16 07:31N 29°41' W 094°12'0 0.0
2018-Feb-16 07:00N 29°41' W 094°12'0 0.0
2018-Feb-16 06:30N 29°41' W 094°12'0 0.0
2018-Feb-16 06:01N 29°41' W 094°12'0 0.0
2018-Feb-16 05:30N 29°41' W 094°12'0 0.0
2018-Feb-16 05:00N 29°41' W 094°12'0 0.0
2018-Feb-16 04:30N 29°41' W 094°12'0 0.0
2018-Feb-16 04:00N 29°41' W 094°12'0 0.0
2018-Feb-16 03:30N 29°41' W 094°12'0 0.0
2018-Feb-16 03:00N 29°41' W 094°12'0 0.0
2018-Feb-16 02:31N 29°41' W 094°12'0 0.0
2018-Feb-16 02:00N 29°41' W 094°12'0 0.0
2018-Feb-16 01:30N 29°41' W 094°12'0 0.0
2018-Feb-16 01:01N 29°41' W 094°12'0 0.0
2018-Feb-16 00:31N 29°41' W 094°12'0 0.0
2018-Feb-16 00:01N 29°41' W 094°12'2 3.4
2018-Feb-15 23:30N 29°41' W 094°10'2 4.5
2018-Feb-15 23:00N 29°42' W 094°08'3 5.3
2018-Feb-15 22:30N 29°44' W 094°06'3 5.3
2018-Feb-15 22:00N 29°46' W 094°03'3 5.2
2018-Feb-15 21:30N 29°47' W 094°01'3 5.1
2018-Feb-15 21:01N 29°49' W 093°59'2 4.8
2018-Feb-15 20:30N 29°51' W 093°57'3 6.2
2018-Feb-15 20:01N 29°53' W 093°55'3 6.1
2018-Feb-15 19:30N 29°56' W 093°53'3 5.7
2018-Feb-15 19:01N 29°58' W 093°51'3 5.5
2018-Feb-15 18:31N 29°59' W 093°48'1 2.8
2018-Feb-15 18:00N 29°60' W 093°47'0 0.0
2018-Feb-15 17:30N 29°60' W 093°47'0 0.0
2018-Feb-15 17:01N 29°60' W 093°47'0 0.0
2018-Feb-15 16:31N 29°60' W 093°47'0 0.0
2018-Feb-15 16:01N 29°60' W 093°47'0 0.0
2018-Feb-15 15:31N 29°60' W 093°47'0 0.0
2018-Feb-15 15:00N 29°60' W 093°47'0 0.0
2018-Feb-15 14:30N 29°60' W 093°47'0 0.0
2018-Feb-15 14:00N 29°60' W 093°47'0 0.0
2018-Feb-15 13:31N 29°60' W 093°47'0 0.1
2018-Feb-15 13:00N 29°60' W 093°47'0 0.0
2018-Feb-15 12:31N 29°60' W 093°47'0 0.0
2018-Feb-15 12:00N 29°60' W 093°47'0 0.0
2018-Feb-15 11:31N 29°60' W 093°47'0 0.0
2018-Feb-15 11:00N 29°60' W 093°47'0 0.0
2018-Feb-15 10:30N 29°60' W 093°47'0 0.0
2018-Feb-15 10:01N 29°60' W 093°47'0 0.0
2018-Feb-15 09:31N 29°60' W 093°47'0 0.0
2018-Feb-15 09:00N 29°60' W 093°47'0 0.0
2018-Feb-15 08:30N 29°60' W 093°47'0 0.0
2018-Feb-15 08:00N 29°60' W 093°47'0 0.0
2018-Feb-15 07:31N 29°60' W 093°47'0 0.0
2018-Feb-15 07:00N 29°60' W 093°47'0 0.0
2018-Feb-15 06:30N 29°60' W 093°47'0 0.0
2018-Feb-15 06:01N 29°60' W 093°47'0 0.0
2018-Feb-15 05:29N 29°60' W 093°47'0 0.0
2018-Feb-15 05:00N 29°60' W 093°47'0 0.0
2018-Feb-15 04:30N 29°60' W 093°47'0 0.0
2018-Feb-15 04:00N 29°60' W 093°47'0 0.0
2018-Feb-15 03:30N 29°60' W 093°47'0 0.0
2018-Feb-15 03:00N 29°60' W 093°47'0 0.0
2018-Feb-15 02:30N 29°60' W 093°47'0 0.0
2018-Feb-15 02:00N 29°60' W 093°47'0 0.0
2018-Feb-15 01:30N 29°60' W 093°47'0 0.0
2018-Feb-15 01:00N 29°60' W 093°47'0 0.0
2018-Feb-15 00:30N 29°60' W 093°47'0 0.0
2018-Feb-15 00:01N 29°60' W 093°47'0 0.0
2018-Feb-14 23:31N 29°60' W 093°47'0 0.0
2018-Feb-14 23:01N 29°60' W 093°47'1 1.8
2018-Feb-14 22:30N 30°00' W 093°46'3 5.1
2018-Feb-14 22:00N 30°02' W 093°44'2 4.9
2018-Feb-14 21:31N 30°04' W 093°42'3 5.2
2018-Feb-14 21:01N 30°04' W 093°39'2 4.7
2018-Feb-14 20:30N 30°04' W 093°36'2 4.1
2018-Feb-14 20:00N 30°04' W 093°34'2 4.0
2018-Feb-14 19:30N 30°04' W 093°31'2 3.9
2018-Feb-14 18:59N 30°04' W 093°29'1 2.2
2018-Feb-14 18:30N 30°04' W 093°28'0 0.0
2018-Feb-14 18:00N 30°04' W 093°28'0 0.0
2018-Feb-14 17:30N 30°04' W 093°28'0 0.0
2018-Feb-14 17:00N 30°04' W 093°28'0 0.0
2018-Feb-14 16:30N 30°04' W 093°28'0 0.0
2018-Feb-14 16:00N 30°04' W 093°28'0 0.0
2018-Feb-14 15:30N 30°04' W 093°28'0 0.0
2018-Feb-14 15:00N 30°04' W 093°28'0 0.0
2018-Feb-14 14:30N 30°04' W 093°28'0 0.1
2018-Feb-14 14:01N 30°04' W 093°28'0 0.0
2018-Feb-14 13:30N 30°04' W 093°28'0 0.0
2018-Feb-14 13:01N 30°04' W 093°28'0 0.0
2018-Feb-14 12:31N 30°04' W 093°28'0 0.0
2018-Feb-14 12:00N 30°04' W 093°28'0 0.0
2018-Feb-14 11:30N 30°04' W 093°28'0 0.0
2018-Feb-14 11:01N 30°04' W 093°28'0 0.0
2018-Feb-14 10:30N 30°04' W 093°28'0 0.0
2018-Feb-14 10:00N 30°04' W 093°28'0 0.4
2018-Feb-14 09:30N 30°04' W 093°27'2 4.4
2018-Feb-14 09:01N 30°04' W 093°25'2 4.7
2018-Feb-14 08:31N 30°04' W 093°22'1 2.8
2018-Feb-14 08:01N 30°04' W 093°21'2 3.2
2018-Feb-14 07:31N 30°05' W 093°20'2 3.1
2018-Feb-14 07:00N 30°05' W 093°18'1 1.6
2018-Feb-14 06:30N 30°05' W 093°17'1 1.8
2018-Feb-14 06:00N 30°04' W 093°16'1 1.2
2018-Feb-14 05:31N 30°04' W 093°16'1 2.8
2018-Feb-14 05:00N 30°02' W 093°16'2 4.2
2018-Feb-14 04:30N 30°01' W 093°14'2 4.2
2018-Feb-14 04:00N 29°59' W 093°13'2 4.4
2018-Feb-14 03:30N 29°58' W 093°11'2 4.2
2018-Feb-14 03:00N 29°56' W 093°09'2 4.6
2018-Feb-14 02:30N 29°56' W 093°06'2 4.8
2018-Feb-14 02:00N 29°56' W 093°04'  

Dump ship's entire track history